createdAt,value
2019-02-26T00:05:21.562Z,15.27
2019-02-26T00:11:16.109Z,18.39
2019-02-26T00:17:12.925Z,15.87
2019-02-26T00:23:06.132Z,16.59
2019-02-26T00:29:01.832Z,17.07
2019-02-26T00:34:57.516Z,19.2
2019-02-26T00:40:51.099Z,18.67
2019-02-26T00:46:46.162Z,18.38
2019-02-26T00:52:41.106Z,16.5
2019-02-26T00:58:38.846Z,15.99
2019-02-26T01:04:31.134Z,13.76
2019-02-26T01:10:26.152Z,17.41
2019-02-26T01:16:21.128Z,16.08
2019-02-26T01:22:16.109Z,19.07
2019-02-26T01:28:14.044Z,18.1
2019-02-26T01:34:06.128Z,14.6
2019-02-26T01:40:01.167Z,14.88
2019-02-26T01:45:56.159Z,16.76
2019-02-26T01:51:51.771Z,15.67
2019-02-26T01:57:46.152Z,12.49
2019-02-26T02:03:41.188Z,13.53
2019-02-26T02:09:36.194Z,15.19
2019-02-26T02:15:31.196Z,13.67
2019-02-26T02:21:28.074Z,12.51
2019-02-26T02:27:22.525Z,14.82
2019-02-26T02:33:17.884Z,13.66
2019-02-26T02:39:15.296Z,10.85
2019-02-26T02:45:07.688Z,13.38
2019-02-26T02:51:02.159Z,9.77
2019-02-26T02:56:56.689Z,10.62
2019-02-26T03:02:52.894Z,12.79
2019-02-26T03:08:47.890Z,10.64
2019-02-26T03:14:41.958Z,11.24
2019-02-26T03:20:39.797Z,10.05
2019-02-26T03:26:31.238Z,12.46
2019-02-26T03:32:26.241Z,12.15
2019-02-26T03:38:23.340Z,10.49
2019-02-26T03:44:16.226Z,12.9
2019-02-26T03:50:11.233Z,9.72
2019-02-26T03:56:07.980Z,14.27
2019-02-26T04:02:01.260Z,10.87
2019-02-26T04:07:58.458Z,8.01
2019-02-26T04:13:52.088Z,10.32
2019-02-26T04:19:46.227Z,8.24
2019-02-26T04:25:41.242Z,7.37
2019-02-26T04:31:36.241Z,8.78
2019-02-26T04:37:32.695Z,7.96
2019-02-26T04:43:27.787Z,8.31
2019-02-26T04:49:21.322Z,9.09
2019-02-26T04:55:16.285Z,9.57
2019-02-26T05:01:12.935Z,6.38
2019-02-26T05:07:07.950Z,7.52
2019-02-26T05:13:03.861Z,6.67
2019-02-26T05:18:58.438Z,6.73
2019-02-26T05:24:52.780Z,5.93
2019-02-26T05:30:48.270Z,6.63
2019-02-26T05:36:43.435Z,7.32
2019-02-26T05:42:36.294Z,7.84
2019-02-26T05:48:31.281Z,6.47
2019-02-26T05:54:26.380Z,6.4
2019-02-26T06:00:24.575Z,7.19
2019-02-26T06:06:16.319Z,5.71
2019-02-26T06:12:11.302Z,6.2
2019-02-26T06:18:06.357Z,6.96
2019-02-26T06:24:01.321Z,4.99
2019-02-26T06:29:58.070Z,5.03
2019-02-26T06:35:51.324Z,4.54
2019-02-26T06:41:46.825Z,7.4
2019-02-26T06:47:41.331Z,6.24
2019-02-26T06:53:36.326Z,5.88
2019-02-26T06:59:32.325Z,8.3
2019-02-26T07:05:26.353Z,7.82
2019-02-26T07:11:21.383Z,12.18
2019-02-26T07:17:16.334Z,14.6
2019-02-26T07:23:12.904Z,14.12
2019-02-26T07:29:07.990Z,19.29
2019-02-26T07:35:01.367Z,15.17
2019-02-26T07:40:56.598Z,26.83
2019-02-26T07:46:51.359Z,20.77
2019-02-26T07:52:47.353Z,24.91
2019-02-26T07:58:43.017Z,27.79
2019-02-26T08:04:38.334Z,25.79
2019-02-26T08:10:35.079Z,34.67
2019-02-26T08:16:27.618Z,22.12
2019-02-26T08:22:21.392Z,28.13
2019-02-26T08:28:18.380Z,29.58
2019-02-26T08:34:13.172Z,27.04
2019-02-26T08:40:06.408Z,23.44
2019-02-26T08:46:01.406Z,24.45
2019-02-26T08:51:56.497Z,24.64
2019-02-26T08:57:56.372Z,24.5
2019-02-26T09:03:48.149Z,21.91
2019-02-26T09:09:41.410Z,18.82
2019-02-26T09:15:38.369Z,20.04
2019-02-26T09:21:31.422Z,21.8
2019-02-26T09:27:27.179Z,20.06
2019-02-26T09:33:21.436Z,20.56
2019-02-26T09:39:16.490Z,18.43
2019-02-26T09:45:11.444Z,16.06
2019-02-26T09:51:07.425Z,14.22
2019-02-26T09:57:01.464Z,10.6
2019-02-26T10:02:56.470Z,9.05
2019-02-26T10:08:53.235Z,8.34
2019-02-26T10:14:46.514Z,8.23
2019-02-26T10:20:43.142Z,8.25
2019-02-26T10:26:38.290Z,9.95
2019-02-26T10:32:32.782Z,8.37
2019-02-26T10:38:29.477Z,8.58
2019-02-26T10:44:21.531Z,8.58
2019-02-26T10:50:19.312Z,3.1
2019-02-26T10:56:11.489Z,4.16
2019-02-26T11:02:06.524Z,6.39
2019-02-26T11:08:05.298Z,3.04
2019-02-26T11:13:56.523Z,5.69
2019-02-26T11:19:52.971Z,2.78
2019-02-26T11:25:46.502Z,3.17
2019-02-26T11:31:42.409Z,2.24
2019-02-26T11:37:36.554Z,2.34
2019-02-26T11:43:31.521Z,4.44
2019-02-26T11:49:26.533Z,2.62
2019-02-26T11:55:23.402Z,4.38
2019-02-26T12:01:16.557Z,3.01
2019-02-26T12:07:11.567Z,3.81
2019-02-26T12:13:06.560Z,3.5
2019-02-26T12:19:03.108Z,3.16
2019-02-26T12:24:58.752Z,3.43
2019-02-26T12:30:51.569Z,2.84
2019-02-26T12:36:48.030Z,6.27
2019-02-26T12:42:41.558Z,11.69
2019-02-26T12:48:37.711Z,4.78
2019-02-26T12:54:33.473Z,4.3
2019-02-26T13:00:26.591Z,6.02
2019-02-26T13:06:22.863Z,4.6
2019-02-26T13:12:19.880Z,4.26
2019-02-26T13:18:11.606Z,4.09
2019-02-26T13:24:12.260Z,5.34
2019-02-26T13:30:01.602Z,2.93
2019-02-26T13:36:00.453Z,3.8
2019-02-26T13:41:54.589Z,2.7
2019-02-26T13:47:46.613Z,3.59
2019-02-26T13:53:41.644Z,5.04
2019-02-26T13:59:36.713Z,3.56
2019-02-26T14:05:37.831Z,3.44
2019-02-26T14:11:26.618Z,4.3
2019-02-26T14:17:21.644Z,3.83
2019-02-26T14:23:16.659Z,3.55
2019-02-26T14:29:11.647Z,4.31
2019-02-26T14:35:06.663Z,3.3
2019-02-26T14:41:02.284Z,5.78
2019-02-26T14:46:56.666Z,3
2019-02-26T14:52:51.636Z,2.57
2019-02-26T14:58:46.645Z,5.01
2019-02-26T15:04:41.693Z,5.1
2019-02-26T15:10:36.662Z,2.66
2019-02-26T15:16:31.711Z,5.91
2019-02-26T15:22:26.676Z,5.37
2019-02-26T15:28:21.735Z,4.48
2019-02-26T15:34:16.673Z,4.77
2019-02-26T15:40:11.680Z,2.96
2019-02-26T15:46:06.690Z,3.67
2019-02-26T15:52:01.677Z,5.4
2019-02-26T15:57:56.726Z,9.07
2019-02-26T16:03:51.739Z,6.91
2019-02-26T16:09:46.716Z,7.14
2019-02-26T16:15:41.699Z,8.73
2019-02-26T16:21:36.701Z,12.15
2019-02-26T16:27:37.487Z,5.96
2019-02-26T16:33:26.699Z,8.79
2019-02-26T16:39:24.487Z,8.63
2019-02-26T16:45:16.719Z,13.6
2019-02-26T16:51:11.727Z,12.18
2019-02-26T16:57:06.730Z,7.67
2019-02-26T17:03:01.723Z,9.1
2019-02-26T17:08:56.753Z,9.43
2019-02-26T17:14:51.762Z,8.67
2019-02-26T17:20:46.751Z,8.01
2019-02-26T17:26:41.803Z,13.62
2019-02-26T17:32:38.072Z,12.43
2019-02-26T17:38:31.744Z,12.11
2019-02-26T17:44:26.756Z,7.53
2019-02-26T17:50:21.785Z,6.79
2019-02-26T17:56:16.779Z,9.7
2019-02-26T18:02:11.764Z,7.89
2019-02-26T18:08:06.764Z,11.8
2019-02-26T18:14:01.774Z,11.62
2019-02-26T18:19:56.766Z,6.85
2019-02-26T18:25:51.773Z,5.53
2019-02-26T18:31:46.787Z,7.03
2019-02-26T18:37:46.280Z,6.57
2019-02-26T18:43:36.803Z,7.12
2019-02-26T18:49:31.789Z,8.83
2019-02-26T18:55:28.321Z,6.35
2019-02-26T19:01:21.805Z,9.44
2019-02-26T19:07:16.836Z,8.77
2019-02-26T19:13:11.820Z,9.87
2019-02-26T19:19:09.076Z,13.23
2019-02-26T19:25:01.814Z,12.92
2019-02-26T19:30:58.815Z,19.84
2019-02-26T19:36:51.816Z,14.98
2019-02-26T19:42:46.882Z,13.4
2019-02-26T19:48:41.844Z,14.35
2019-02-26T19:54:36.838Z,14.64
2019-02-26T20:00:31.945Z,15.57
2019-02-26T20:06:26.986Z,15.14
2019-02-26T20:12:21.839Z,15.23
2019-02-26T20:18:20.392Z,12.73
2019-02-26T20:24:11.872Z,13.61
2019-02-26T20:30:06.898Z,12.62
2019-02-26T20:36:01.869Z,13.26
2019-02-26T20:41:56.860Z,15.09
2019-02-26T20:47:51.910Z,12.97
2019-02-26T20:53:46.894Z,14.83
2019-02-26T20:59:41.870Z,13.32
2019-02-26T21:05:36.926Z,13.68
2019-02-26T21:11:31.883Z,14.73
2019-02-26T21:17:26.868Z,10.92
2019-02-26T21:23:21.881Z,12.24
2019-02-26T21:29:16.894Z,14.76
2019-02-26T21:35:11.902Z,14.06
2019-02-26T21:41:06.908Z,14.47
2019-02-26T21:47:01.961Z,10.06
2019-02-26T21:53:00.074Z,14.5
2019-02-26T21:58:51.966Z,16.27
2019-02-26T22:04:46.897Z,13.53
2019-02-26T22:10:42.779Z,14.29
2019-02-26T22:16:36.988Z,13.17
2019-02-26T22:22:32.018Z,12.36
2019-02-26T22:28:26.925Z,13.04
2019-02-26T22:34:21.936Z,12.47
2019-02-26T22:40:16.918Z,17.63
2019-02-26T22:46:11.938Z,11.74
2019-02-26T22:52:06.921Z,15.11
2019-02-26T22:58:02.729Z,13.5
2019-02-26T23:03:56.935Z,11.45
2019-02-26T23:09:52.344Z,17.53
2019-02-26T23:15:46.953Z,11.44
2019-02-26T23:21:41.953Z,10.39
2019-02-26T23:27:36.963Z,11.21
2019-02-26T23:33:31.979Z,11.7
2019-02-26T23:39:26.979Z,8.02
2019-02-26T23:45:24.123Z,12.83
2019-02-26T23:51:20.000Z,11.57
2019-02-26T23:57:12.014Z,12.56
